Time;durP1;ratioP1;P1;durP2;ratioP2;P2;SDS_P1;SDS_P2;PMS_P1;PMS_P2;Temp;Humidity;BMP_temperature;BMP_pressure;BME280_temperature;BME280_humidity;BME280_pressure;Samples;Min_cycle;Max_cycle;Signal;HPM_P1;HPM_P2
2023/03/18 00:03:13;;;;;;;2.67;1.60;;;15.90;66.60;;;;;;10441279;28;20021;-57
2023/03/18 00:08:15;;;;;;;2.97;1.60;;;15.90;66.60;;;;;;10441584;28;20037;-57
2023/03/18 00:13:17;;;;;;;2.95;1.60;;;15.90;66.60;;;;;;10441569;28;20025;-56
2023/03/18 00:18:18;;;;;;;2.53;1.35;;;15.90;66.60;;;;;;10450758;28;20443;-57
2023/03/18 00:23:20;;;;;;;3.92;1.92;;;15.90;66.60;;;;;;10449830;28;20111;-57
2023/03/18 00:28:24;;;;;;;3.08;1.75;;;15.90;66.60;;;;;;10432884;28;20025;-57
2023/03/18 00:33:24;;;;;;;2.50;1.55;;;15.90;66.60;;;;;;10449944;28;20025;-57
2023/03/18 00:38:25;;;;;;;2.17;1.30;;;15.90;66.60;;;;;;10449128;28;20021;-57
2023/03/18 00:43:32;;;;;;;2.53;1.60;;;15.90;66.50;;;;;;10435513;28;20432;-57
2023/03/18 00:48:33;;;;;;;2.67;1.35;;;15.90;66.50;;;;;;10449132;28;20020;-57
2023/03/18 00:53:33;;;;;;;2.50;1.50;;;15.90;66.50;;;;;;10448617;28;20128;-56
2023/03/18 00:58:36;;;;;;;3.95;1.10;;;15.90;66.50;;;;;;10448434;28;20358;-57
2023/03/18 01:03:36;;;;;;;2.70;1.42;;;15.90;66.60;;;;;;10448068;28;20076;-57
2023/03/18 01:08:40;;;;;;;2.50;1.55;;;15.90;66.50;;;;;;10431738;28;20048;-57
2023/03/18 01:13:41;;;;;;;3.30;1.40;;;15.80;66.50;;;;;;10447853;28;20025;-57
2023/03/18 01:18:42;;;;;;;5.43;1.88;;;15.80;66.50;;;;;;10448500;28;20024;-57
2023/03/18 01:23:42;;;;;;;3.08;1.15;;;15.80;66.40;;;;;;10449264;28;20036;-58
2023/03/18 01:28:43;;;;;;;2.78;1.13;;;15.80;66.40;;;;;;10446930;28;20017;-58
2023/03/18 01:33:44;;;;;;;6.10;1.48;;;15.80;66.50;;;;;;10448860;28;20158;-59
2023/03/18 01:38:45;;;;;;;3.63;1.42;;;15.80;66.50;;;;;;10443136;28;20416;-57
2023/03/18 01:43:46;;;;;;;3.25;1.70;;;15.90;66.50;;;;;;10420502;28;20112;-57
2023/03/18 01:48:50;;;;;;;2.22;1.50;;;15.90;66.20;;;;;;10432096;28;20461;-58
2023/03/18 01:53:53;;;;;;;2.08;1.45;;;15.90;66.30;;;;;;10445014;28;20515;-59
2023/03/18 01:58:57;;;;;;;3.10;1.70;;;15.80;66.40;;;;;;10448367;28;20025;-59
2023/03/18 02:03:59;;;;;;;3.20;1.30;;;15.80;66.40;;;;;;10448110;28;20037;-59
2023/03/18 02:09:01;;;;;;;2.95;1.63;;;15.80;66.40;;;;;;10450579;28;20049;-57
2023/03/18 02:14:04;;;;;;;2.22;1.52;;;15.80;66.50;;;;;;10447827;28;20041;-58
2023/03/18 02:19:33;;;;;;;2.45;1.75;;;15.80;66.50;;;;;;10442272;28;20055;-59
2023/03/18 02:25:15;;;;;;;2.77;1.50;;;15.80;66.50;;;;;;10447703;28;20041;-58
2023/03/18 02:30:23;;;;;;;1.90;1.30;;;15.80;66.50;;;;;;10448752;28;20096;-57
2023/03/18 02:35:26;;;;;;;2.65;1.27;;;15.80;66.50;;;;;;10448042;28;20029;-59
2023/03/18 02:40:40;;;;;;;2.97;1.60;;;15.70;66.40;;;;;;10448452;28;20100;-59
2023/03/18 02:46:00;;;;;;;2.85;1.15;;;15.80;66.50;;;;;;10430771;28;20658;-59
2023/03/18 02:51:01;;;;;;;3.58;1.60;;;15.80;66.50;;;;;;10431780;28;20090;-59
2023/03/18 02:56:03;;;;;;;2.03;1.33;;;15.80;66.50;;;;;;10446716;28;20082;-60
2023/03/18 03:01:06;;;;;;;3.88;1.40;;;15.70;66.40;;;;;;10444722;28;20021;-58
2023/03/18 03:06:07;;;;;;;2.58;1.60;;;15.70;66.40;;;;;;10446394;28;20021;-57
2023/03/18 03:11:09;;;;;;;2.55;1.58;;;15.70;66.40;;;;;;10447902;28;20511;-58
2023/03/18 03:16:10;;;;;;;1.83;1.27;;;15.70;66.40;;;;;;10448022;28;20578;-57
2023/03/18 03:21:13;;;;;;;2.42;1.40;;;15.70;66.40;;;;;;10446612;28;20039;-57
2023/03/18 03:26:15;;;;;;;4.00;1.65;;;15.70;66.40;;;;;;10446280;28;20028;-57
2023/03/18 03:31:16;;;;;;;2.17;1.58;;;15.70;66.40;;;;;;10445950;28;20022;-58
2023/03/18 03:36:17;;;;;;;2.13;1.50;;;15.70;66.40;;;;;;10445135;28;20017;-57
2023/03/18 03:41:18;;;;;;;2.80;1.65;;;15.70;66.40;;;;;;10427176;28;20013;-57
2023/03/18 03:46:19;;;;;;;2.10;1.30;;;15.70;66.40;;;;;;10445827;28;20468;-57
2023/03/18 03:51:19;;;;;;;2.53;1.38;;;15.70;66.40;;;;;;10428721;28;20027;-57
2023/03/18 03:56:21;;;;;;;3.30;1.13;;;15.70;66.40;;;;;;10445515;28;20079;-56
2023/03/18 04:01:21;;;;;;;1.98;1.20;;;15.70;66.40;;;;;;10445141;28;20025;-58
2023/03/18 04:06:22;;;;;;;1.85;1.30;;;15.70;66.40;;;;;;10445371;28;20415;-57
2023/03/18 04:11:23;;;;;;;2.65;1.48;;;15.60;66.40;;;;;;10445028;28;20114;-58
2023/03/18 04:16:23;;;;;;;3.03;1.35;;;15.70;66.50;;;;;;10428802;28;20021;-57
2023/03/18 04:21:24;;;;;;;2.03;1.48;;;15.60;66.40;;;;;;10428187;28;20044;-55
2023/03/18 04:26:25;;;;;;;2.38;1.58;;;15.60;66.40;;;;;;10444908;28;20424;-57
2023/03/18 04:31:27;;;;;;;3.13;1.83;;;15.60;66.40;;;;;;10443395;28;20021;-58
2023/03/18 04:36:28;;;;;;;2.30;1.48;;;15.60;66.40;;;;;;10444072;28;20025;-59
2023/03/18 04:41:28;;;;;;;2.95;1.48;;;15.60;66.40;;;;;;10423892;28;20030;-59
2023/03/18 04:46:30;;;;;;;3.58;1.63;;;15.60;66.40;;;;;;10450979;28;20025;-59
2023/03/18 04:51:31;;;;;;;2.45;2.00;;;15.60;66.40;;;;;;10445520;28;20372;-59
2023/03/18 04:56:33;;;;;;;2.22;1.27;;;15.60;66.40;;;;;;10443579;28;20033;-59
2023/03/18 05:01:34;;;;;;;2.90;1.60;;;15.60;66.40;;;;;;10445239;28;20111;-57
2023/03/18 05:06:36;;;;;;;2.25;1.90;;;15.60;66.40;;;;;;10451935;28;20023;-59
2023/03/18 05:11:37;;;;;;;2.45;1.30;;;15.60;66.40;;;;;;10451298;28;20072;-59
2023/03/18 05:16:37;;;;;;;2.03;1.30;;;15.60;66.50;;;;;;10452704;28;20056;-59
2023/03/18 05:21:38;;;;;;;2.20;1.50;;;15.60;66.50;;;;;;10452771;28;20586;-58
2023/03/18 05:26:39;;;;;;;2.97;1.55;;;15.60;66.50;;;;;;10452246;28;20044;-59
2023/03/18 05:31:39;;;;;;;2.22;1.50;;;15.60;66.40;;;;;;10445537;28;20100;-61
2023/03/18 05:36:40;;;;;;;2.65;1.40;;;15.70;66.20;;;;;;10451452;28;20682;-59
2023/03/18 05:41:40;;;;;;;3.55;1.50;;;15.80;66.00;;;;;;10445687;28;20111;-59
2023/03/18 05:46:42;;;;;;;2.33;1.70;;;15.80;65.80;;;;;;10459259;28;20052;-59
2023/03/18 05:51:43;;;;;;;4.10;1.45;;;15.90;65.60;;;;;;10450186;28;20029;-59
2023/03/18 05:56:44;;;;;;;4.68;1.88;;;15.90;66.10;;;;;;10449708;28;20057;-58
2023/03/18 06:01:45;;;;;;;4.47;1.85;;;16.00;66.80;;;;;;10432419;28;20028;-57
2023/03/18 06:06:47;;;;;;;4.97;2.17;;;16.30;66.70;;;;;;10430486;28;20024;-59
2023/03/18 06:11:48;;;;;;;10.95;2.45;;;16.40;66.90;;;;;;10463326;28;20053;-59
2023/03/18 06:16:48;;;;;;;8.10;3.35;;;16.40;66.90;;;;;;10444787;28;20479;-59
2023/03/18 06:21:49;;;;;;;16.42;4.07;;;16.30;67.10;;;;;;10446363;28;20068;-57
2023/03/18 06:26:50;;;;;;;7.13;2.90;;;16.30;68.10;;;;;;10447297;28;20443;-58
2023/03/18 06:31:51;;;;;;;6.47;2.85;;;16.40;68.00;;;;;;10449885;28;20013;-58
2023/03/18 06:36:52;;;;;;;9.73;3.17;;;16.40;68.70;;;;;;10449740;28;20013;-58
2023/03/18 06:41:53;;;;;;;15.00;3.10;;;16.40;68.20;;;;;;10424693;28;20421;-58
2023/03/18 06:46:55;;;;;;;13.45;3.15;;;16.40;68.70;;;;;;10458643;28;20067;-58
2023/03/18 06:51:55;;;;;;;10.23;3.28;;;16.50;68.70;;;;;;10449082;28;20648;-58
2023/03/18 06:56:56;;;;;;;11.75;2.75;;;16.50;68.80;;;;;;10446590;28;20056;-56
2023/03/18 07:01:57;;;;;;;11.02;4.05;;;16.50;68.80;;;;;;10448070;28;20599;-57
2023/03/18 07:06:59;;;;;;;9.38;3.20;;;16.50;68.50;;;;;;10446885;28;20365;-58
2023/03/18 07:12:00;;;;;;;17.23;3.80;;;16.40;68.90;;;;;;10444636;28;20049;-57
2023/03/18 07:17:01;;;;;;;15.80;4.10;;;16.30;69.30;;;;;;10458095;28;20029;-57
2023/03/18 07:22:03;;;;;;;9.18;3.63;;;16.30;69.10;;;;;;10442672;28;20029;-56
2023/03/18 07:27:04;;;;;;;9.65;3.58;;;16.30;69.20;;;;;;10447144;28;20021;-59
2023/03/18 07:32:05;;;;;;;7.18;3.13;;;16.40;69.00;;;;;;10454925;28;20104;-59
2023/03/18 07:37:06;;;;;;;10.77;3.25;;;16.40;69.10;;;;;;10446256;28;20040;-60
2023/03/18 07:42:08;;;;;;;9.38;4.25;;;16.30;69.30;;;;;;10446678;28;20040;-56
2023/03/18 07:47:08;;;;;;;7.45;3.72;;;16.30;69.50;;;;;;10446894;28;20021;-59
2023/03/18 07:52:09;;;;;;;11.73;4.43;;;16.20;69.20;;;;;;10445034;28;20051;-59
2023/03/18 07:57:10;;;;;;;13.15;4.90;;;16.30;70.00;;;;;;10445160;28;20112;-59
2023/03/18 08:02:13;;;;;;;16.63;4.90;;;16.50;69.70;;;;;;10436838;28;20146;-58
2023/03/18 08:07:14;;;;;;;21.73;4.93;;;16.30;69.50;;;;;;10438436;28;20698;-58
2023/03/18 08:12:15;;;;;;;11.73;4.50;;;16.20;69.50;;;;;;10434604;28;20219;-56
2023/03/18 08:17:16;;;;;;;10.30;4.55;;;16.10;69.40;;;;;;10410444;28;20145;-58
2023/03/18 08:22:17;;;;;;;9.50;4.18;;;16.10;69.50;;;;;;10435274;28;20036;-58
2023/03/18 08:27:18;;;;;;;12.32;4.60;;;16.10;69.40;;;;;;10441365;28;20025;-59
2023/03/18 08:32:20;;;;;;;12.30;4.00;;;16.10;69.40;;;;;;10442883;28;20033;-56
2023/03/18 08:37:21;;;;;;;14.70;5.00;;;16.00;69.30;;;;;;10445095;28;20017;-58
2023/03/18 08:42:22;;;;;;;8.52;3.92;;;16.00;69.30;;;;;;10450916;28;20116;-58
2023/03/18 08:47:24;;;;;;;11.98;3.83;;;16.00;69.20;;;;;;10452353;28;20094;-59
2023/03/18 08:52:24;;;;;;;12.90;4.00;;;16.00;69.00;;;;;;10452836;28;20028;-58
2023/03/18 08:57:26;;;;;;;11.90;3.83;;;16.00;69.00;;;;;;10451421;28;20695;-57
2023/03/18 09:02:27;;;;;;;9.13;4.13;;;16.00;68.90;;;;;;10450528;28;20171;-59
2023/03/18 09:07:28;;;;;;;7.95;3.17;;;16.10;68.80;;;;;;10449593;28;20112;-58
2023/03/18 09:12:28;;;;;;;8.05;3.10;;;16.10;68.70;;;;;;10450167;28;20021;-58
2023/03/18 09:17:29;;;;;;;6.60;3.03;;;16.10;68.70;;;;;;10428170;28;20068;-58
2023/03/18 09:22:30;;;;;;;11.02;3.30;;;16.20;68.60;;;;;;10448874;28;20035;-58
2023/03/18 09:27:32;;;;;;;6.53;3.35;;;16.10;68.40;;;;;;10474345;28;20057;-58
2023/03/18 09:32:32;;;;;;;8.63;3.95;;;16.10;68.50;;;;;;10449052;28;20029;-58
2023/03/18 09:37:33;;;;;;;8.25;4.22;;;16.10;68.30;;;;;;10450198;28;20120;-57
2023/03/18 09:43:08;;;;;;;12.15;6.32;;;16.20;68.40;;;;;;10446814;28;20580;-58
2023/03/18 09:48:34;;;;;;;12.88;5.47;;;16.20;68.70;;;;;;10441184;28;20518;-58
2023/03/18 09:53:58;;;;;;;12.98;4.20;;;16.20;68.50;;;;;;10450527;28;20589;-57
2023/03/18 09:59:14;;;;;;;11.52;4.32;;;16.20;68.40;;;;;;10447501;28;20111;-58
2023/03/18 10:04:32;;;;;;;9.65;3.72;;;16.20;68.50;;;;;;10449356;28;20033;-57
2023/03/18 10:09:47;;;;;;;9.55;3.53;;;16.20;68.50;;;;;;10446903;28;20102;-58
2023/03/18 10:15:38;;;;;;;8.25;3.55;;;16.20;68.50;;;;;;10420669;28;20580;-55
2023/03/18 10:21:38;;;;;;;;;;;16.20;68.50;;;;;;10447136;28;20021;-55
2023/03/18 10:27:08;;;;;;;11.82;3.38;;;16.30;68.40;;;;;;10400963;28;19921;-56
2023/03/18 10:32:50;;;;;;;6.70;3.92;;;16.30;68.50;;;;;;10435768;28;20032;-56
2023/03/18 10:38:04;;;;;;;12.15;3.40;;;16.30;68.60;;;;;;10461754;28;20064;-57
2023/03/18 10:43:16;;;;;;;7.07;3.88;;;16.30;68.50;;;;;;10434643;28;20465;-57
2023/03/18 10:48:46;;;;;;;5.85;3.13;;;16.30;68.50;;;;;;10446400;28;20056;-58
2023/03/18 10:54:22;;;;;;;7.90;3.28;;;16.30;68.40;;;;;;10430934;28;20559;-58
2023/03/18 10:59:25;;;;;;;5.22;2.75;;;16.30;68.40;;;;;;10444161;28;20041;-57
2023/03/18 11:04:27;;;;;;;7.95;3.10;;;16.40;68.30;;;;;;10445727;28;20064;-57
2023/03/18 11:09:36;;;;;;;4.47;2.83;;;16.40;68.30;;;;;;10445595;28;20075;-57
2023/03/18 11:14:36;;;;;;;4.00;2.50;;;16.50;68.20;;;;;;10446782;28;20033;-58
2023/03/18 11:19:46;;;;;;;6.30;2.88;;;16.50;68.20;;;;;;10444806;28;20472;-58
2023/03/18 11:25:05;;;;;;;4.72;2.42;;;16.50;68.70;;;;;;10444839;28;20037;-58
2023/03/18 11:30:25;;;;;;;5.45;2.72;;;16.60;68.10;;;;;;10405451;28;20037;-56
2023/03/18 11:35:36;;;;;;;9.25;3.72;;;16.60;68.50;;;;;;10441904;28;20023;-56
2023/03/18 11:40:39;;;;;;;5.75;3.10;;;16.60;68.40;;;;;;10442858;28;20100;-57
2023/03/18 11:45:59;;;;;;;6.78;2.97;;;16.60;68.40;;;;;;10438548;28;20599;-57
2023/03/18 11:51:16;;;;;;;4.85;2.10;;;16.60;68.30;;;;;;10440977;28;20021;-57
2023/03/18 11:56:40;;;;;;;8.40;2.95;;;16.60;68.30;;;;;;10442315;28;20032;-57
2023/03/18 12:02:22;;;;;;;6.80;2.53;;;16.60;68.50;;;;;;10443136;28;20763;-56
2023/03/18 12:07:39;;;;;;;8.60;2.50;;;16.60;68.50;;;;;;10436578;28;20079;-57
2023/03/18 12:12:42;;;;;;;5.30;2.50;;;16.50;68.60;;;;;;10444784;28;20767;-57
2023/03/18 12:18:05;;;;;;;5.90;2.58;;;16.50;68.50;;;;;;10444429;28;20029;-56
2023/03/18 12:23:38;;;;;;;18.30;3.83;;;16.50;68.40;;;;;;10444177;28;20528;-57
2023/03/18 12:29:00;;;;;;;14.32;4.35;;;16.60;68.60;;;;;;10433628;28;20032;-57
2023/03/18 12:34:02;;;;;;;11.70;3.53;;;16.60;68.90;;;;;;10445540;28;20474;-53
2023/03/18 12:39:48;;;;;;;8.90;3.50;;;16.70;69.30;;;;;;10442957;28;20612;-56
2023/03/18 12:44:57;;;;;;;12.05;4.85;;;16.70;70.10;;;;;;10444054;28;20516;-56
2023/03/18 12:50:24;;;;;;;10.60;3.58;;;16.70;69.70;;;;;;10445715;28;20025;-55
2023/03/18 12:55:38;;;;;;;9.55;2.40;;;16.80;70.30;;;;;;10445147;28;20423;-54
2023/03/18 13:01:09;;;;;;;6.55;2.53;;;16.90;70.50;;;;;;10442330;28;20075;-57
2023/03/18 13:06:29;;;;;;;10.80;2.60;;;16.90;69.70;;;;;;10440943;28;20037;-56
2023/03/18 13:12:00;;;;;;;6.78;2.70;;;16.70;70.30;;;;;;10443858;28;20113;-55
2023/03/18 13:17:03;;;;;;;9.02;2.92;;;16.80;70.30;;;;;;10443668;28;20025;-56
2023/03/18 13:22:44;;;;;;;16.33;3.95;;;16.80;70.70;;;;;;10446094;28;20427;-55
2023/03/18 13:28:25;;;;;;;11.85;2.50;;;16.80;71.00;;;;;;10450656;28;20025;-57
2023/03/18 13:33:58;;;;;;;10.20;2.75;;;16.80;70.60;;;;;;10450138;28;20029;-55
2023/03/18 13:39:32;;;;;;;13.45;3.08;;;16.80;70.50;;;;;;10449868;28;20013;-55
2023/03/18 13:44:55;;;;;;;13.25;2.67;;;16.80;70.80;;;;;;10448757;28;20057;-55
2023/03/18 13:50:21;;;;;;;14.80;2.75;;;16.70;70.30;;;;;;10448470;28;20676;-47
2023/03/18 13:55:33;;;;;;;7.30;2.10;;;16.60;69.90;;;;;;10451171;28;20057;-56
2023/03/18 14:00:43;;;;;;;6.28;2.00;;;17.00;68.70;;;;;;10450014;28;20017;-57
2023/03/18 14:06:14;;;;;;;9.75;2.17;;;16.90;69.00;;;;;;10432766;28;20029;-55
2023/03/18 14:11:25;;;;;;;13.05;3.70;;;16.70;70.00;;;;;;10450911;28;20124;-56
2023/03/18 14:16:51;;;;;;;10.00;2.88;;;16.70;71.20;;;;;;10449662;28;20017;-55
2023/03/18 14:22:05;;;;;;;7.53;3.00;;;16.60;71.70;;;;;;10440706;28;20029;-55
2023/03/18 14:27:06;;;;;;;7.90;3.55;;;16.50;71.10;;;;;;10447695;28;20556;-57
2023/03/18 14:32:33;;;;;;;6.82;2.00;;;16.50;71.90;;;;;;10450017;28;20115;-55
2023/03/18 14:38:23;;;;;;;7.70;2.28;;;16.50;71.50;;;;;;10449771;28;20017;-56
2023/03/18 14:43:28;;;;;;;6.72;1.90;;;16.50;72.20;;;;;;10449305;28;20120;-57
2023/03/18 14:48:33;;;;;;;3.75;1.42;;;16.50;71.80;;;;;;10440089;28;20400;-57
2023/03/18 14:54:02;;;;;;;8.13;2.75;;;16.50;72.80;;;;;;10440311;28;20040;-56
2023/03/18 14:59:03;;;;;;;4.73;1.77;;;16.50;71.50;;;;;;10448214;28;20324;-57
2023/03/18 15:04:10;;;;;;;5.40;2.30;;;16.50;71.70;;;;;;10446311;28;20025;-57
2023/03/18 15:09:27;;;;;;;5.78;1.77;;;16.50;71.40;;;;;;10446615;28;20047;-56
2023/03/18 15:14:33;;;;;;;5.90;1.88;;;16.50;71.20;;;;;;10430646;28;20036;-57
2023/03/18 15:19:33;;;;;;;2.97;1.63;;;16.60;71.10;;;;;;10447432;28;20010;-56
2023/03/18 15:24:35;;;;;;;6.22;1.92;;;16.60;70.90;;;;;;10447822;28;20072;-59
2023/03/18 15:29:42;;;;;;;5.03;2.38;;;16.70;70.70;;;;;;10447761;28;20017;-57
2023/03/18 15:34:50;;;;;;;3.65;1.95;;;16.70;70.70;;;;;;10429952;28;20039;-57
2023/03/18 15:39:54;;;;;;;4.18;2.20;;;16.80;70.00;;;;;;10446598;28;20033;-56
2023/03/18 15:44:59;;;;;;;4.07;1.85;;;16.80;69.30;;;;;;10446562;28;20029;-55
2023/03/18 15:50:17;;;;;;;4.25;1.73;;;16.80;68.80;;;;;;10445956;28;20060;-57
2023/03/18 15:55:46;;;;;;;9.43;2.47;;;16.80;68.60;;;;;;10429118;28;20629;-57
2023/03/18 16:00:46;;;;;;;22.98;5.05;;;16.90;68.40;;;;;;10423868;28;20025;-58
2023/03/18 16:05:48;;;;;;;9.32;2.42;;;17.10;68.40;;;;;;10434896;28;20391;-57
2023/03/18 16:10:56;;;;;;;7.20;2.40;;;17.30;68.10;;;;;;10431582;28;20095;-57
2023/03/18 16:15:57;;;;;;;5.97;2.90;;;17.60;67.80;;;;;;10434847;28;20021;-56
2023/03/18 16:20:58;;;;;;;12.20;3.28;;;17.50;69.40;;;;;;10439142;28;20104;-58
2023/03/18 16:25:59;;;;;;;9.25;3.85;;;17.70;70.60;;;;;;10440262;28;20475;-56
2023/03/18 16:30:59;;;;;;;24.98;4.78;;;17.90;70.40;;;;;;10426854;28;20105;-59
2023/03/18 16:36:02;;;;;;;9.25;4.03;;;18.00;70.90;;;;;;10426332;28;20113;-56
2023/03/18 16:41:03;;;;;;;17.05;4.80;;;18.00;71.40;;;;;;10414636;28;20357;-56
2023/03/18 16:46:05;;;;;;;13.90;4.82;;;18.00;71.50;;;;;;10427230;28;20644;-56
2023/03/18 16:51:06;;;;;;;11.65;3.70;;;18.00;72.50;;;;;;10434597;28;20035;-57
2023/03/18 16:56:17;;;;;;;12.63;3.95;;;18.20;71.10;;;;;;10433377;28;20473;-56
2023/03/18 17:01:18;;;;;;;17.52;3.83;;;18.10;71.70;;;;;;10424544;28;20031;-57
2023/03/18 17:06:21;;;;;;;13.35;4.40;;;18.00;72.20;;;;;;10422000;28;20632;-57
2023/03/18 17:11:22;;;;;;;8.18;3.13;;;17.90;72.80;;;;;;10421530;28;20045;-57
2023/03/18 17:16:26;;;;;;;12.88;4.07;;;17.80;73.10;;;;;;10416429;28;20021;-56
2023/03/18 17:21:28;;;;;;;16.35;4.68;;;17.80;73.00;;;;;;10440388;28;20026;-58
2023/03/18 17:26:29;;;;;;;10.43;3.92;;;17.70;72.90;;;;;;10425763;28;20061;-56
2023/03/18 17:31:30;;;;;;;13.57;4.38;;;17.70;73.00;;;;;;10435780;28;20043;-56
2023/03/18 17:36:31;;;;;;;18.27;3.97;;;17.60;72.80;;;;;;10450520;28;20013;-57
2023/03/18 17:41:32;;;;;;;16.00;4.07;;;17.40;72.90;;;;;;10452207;28;20044;-56
2023/03/18 17:46:33;;;;;;;12.55;3.58;;;17.20;72.90;;;;;;10451942;28;20124;-56
2023/03/18 17:51:35;;;;;;;9.70;3.33;;;17.10;73.00;;;;;;10450576;28;20766;-56
2023/03/18 17:56:36;;;;;;;10.25;3.92;;;17.10;73.10;;;;;;10450253;28;20021;-57
2023/03/18 18:01:37;;;;;;;10.70;3.40;;;17.00;73.10;;;;;;10450340;28;20668;-56
2023/03/18 18:06:38;;;;;;;9.32;3.28;;;16.90;73.10;;;;;;10446384;28;20128;-57
2023/03/18 18:11:43;;;;;;;6.68;3.05;;;16.90;72.90;;;;;;10449035;28;20132;-56
2023/03/18 18:16:46;;;;;;;6.68;2.95;;;16.80;73.00;;;;;;10449317;28;20036;-57
2023/03/18 18:21:48;;;;;;;5.15;2.47;;;16.90;72.90;;;;;;10449188;28;20025;-57
2023/03/18 18:26:49;;;;;;;4.07;2.47;;;16.80;72.80;;;;;;10432414;28;20014;-57
2023/03/18 18:31:51;;;;;;;6.68;2.88;;;16.80;72.70;;;;;;10448804;28;20029;-57
2023/03/18 18:36:52;;;;;;;9.10;2.83;;;16.80;72.60;;;;;;10448646;28;20451;-57
2023/03/18 18:41:53;;;;;;;9.10;3.40;;;16.70;72.50;;;;;;10425084;28;20009;-57
2023/03/18 18:46:54;;;;;;;5.28;2.63;;;16.70;72.40;;;;;;10458583;28;20024;-57
2023/03/18 18:51:55;;;;;;;8.40;2.60;;;16.70;72.40;;;;;;10449854;28;20112;-56
2023/03/18 18:56:56;;;;;;;5.88;2.63;;;16.70;72.40;;;;;;10447889;28;20090;-55
2023/03/18 19:01:59;;;;;;;5.40;2.85;;;16.70;72.40;;;;;;10446479;28;20051;-55
2023/03/18 19:07:03;;;;;;;6.75;2.75;;;16.80;72.30;;;;;;10445870;28;20036;-55
2023/03/18 19:12:13;;;;;;;4.88;2.22;;;16.80;72.20;;;;;;10446662;28;20060;-57
2023/03/18 19:17:18;;;;;;;6.43;2.95;;;16.80;71.80;;;;;;10425223;28;20077;-56
2023/03/18 19:22:20;;;;;;;6.68;2.42;;;16.80;72.30;;;;;;10443997;28;20040;-56
2023/03/18 19:27:28;;;;;;;4.63;2.28;;;16.70;72.10;;;;;;10446048;28;20472;-56
2023/03/18 19:32:29;;;;;;;3.03;1.80;;;16.70;72.00;;;;;;10413048;28;20034;-56
2023/03/18 19:37:32;;;;;;;4.97;1.98;;;16.60;72.00;;;;;;10440562;28;20028;-57
2023/03/18 19:42:34;;;;;;;4.75;2.10;;;16.60;72.00;;;;;;10433208;28;20034;-55
2023/03/18 19:47:34;;;;;;;5.43;1.85;;;16.60;71.90;;;;;;10444627;28;20082;-56
2023/03/18 19:52:35;;;;;;;6.80;3.17;;;16.50;71.70;;;;;;10452758;28;20350;-56
2023/03/18 19:57:36;;;;;;;6.15;2.05;;;16.50;71.60;;;;;;10439589;28;20028;-56
2023/03/18 20:02:37;;;;;;;6.82;2.28;;;16.50;71.60;;;;;;10444860;28;20032;-56
2023/03/18 20:07:38;;;;;;;5.70;3.42;;;16.50;71.50;;;;;;10443415;28;20044;-56
2023/03/18 20:12:42;;;;;;;5.97;2.10;;;16.50;71.50;;;;;;10426298;28;20270;-55
2023/03/18 20:17:45;;;;;;;5.95;2.60;;;16.50;71.40;;;;;;10442626;28;20033;-55
2023/03/18 20:22:54;;;;;;;4.97;2.72;;;16.50;71.30;;;;;;10442706;28;20419;-56
2023/03/18 20:27:56;;;;;;;5.13;3.17;;;16.50;71.20;;;;;;10443035;28;20029;-55
2023/03/18 20:32:58;;;;;;;4.82;2.17;;;16.50;71.10;;;;;;10449138;28;20036;-56
2023/03/18 20:38:08;;;;;;;3.42;2.00;;;16.40;71.10;;;;;;10453305;28;20040;-54
2023/03/18 20:43:16;;;;;;;;;;;16.40;71.10;;;;;;10440572;28;20388;-56
2023/03/18 20:48:18;;;;;;;7.47;2.60;;;16.40;70.90;;;;;;10452920;28;19943;-56
2023/03/18 20:53:26;;;;;;;5.10;1.85;;;16.40;70.90;;;;;;10453042;28;20095;-55
2023/03/18 20:58:27;;;;;;;7.28;2.30;;;16.40;70.80;;;;;;10452499;28;20032;-55
2023/03/18 21:03:32;;;;;;;2.70;1.80;;;16.40;70.80;;;;;;10452569;28;20036;-56
2023/03/18 21:08:32;;;;;;;4.40;2.22;;;16.40;70.80;;;;;;10453245;28;20741;-57
2023/03/18 21:13:37;;;;;;;3.35;1.83;;;16.40;70.70;;;;;;10453653;28;20075;-55
2023/03/18 21:18:40;;;;;;;4.30;1.70;;;16.40;70.60;;;;;;10447476;28;20024;-56
2023/03/18 21:23:41;;;;;;;3.42;1.85;;;16.40;70.60;;;;;;10451719;28;20041;-56
2023/03/18 21:28:42;;;;;;;3.25;1.60;;;16.40;70.50;;;;;;10452703;28;20023;-55
2023/03/18 21:33:43;;;;;;;4.35;1.85;;;16.40;70.50;;;;;;10452456;28;20472;-56
2023/03/18 21:38:44;;;;;;;3.63;1.75;;;16.30;70.40;;;;;;10452262;28;20090;-56
2023/03/18 21:43:46;;;;;;;3.17;1.50;;;16.30;70.40;;;;;;10437421;28;20037;-55
2023/03/18 21:48:47;;;;;;;3.90;1.85;;;16.30;70.30;;;;;;10450536;28;20544;-56
2023/03/18 21:53:48;;;;;;;3.20;1.40;;;16.30;70.30;;;;;;10433731;28;20524;-56
2023/03/18 21:58:49;;;;;;;1.90;1.30;;;16.30;70.20;;;;;;10437973;28;20043;-56
2023/03/18 22:03:52;;;;;;;1.83;1.52;;;16.30;70.20;;;;;;10451060;28;20029;-56
2023/03/18 22:08:55;;;;;;;3.83;1.48;;;16.30;70.10;;;;;;10449590;28;20166;-55
2023/03/18 22:13:56;;;;;;;3.60;1.70;;;16.30;70.10;;;;;;10451544;28;20147;-56
2023/03/18 22:18:56;;;;;;;2.47;1.75;;;16.30;70.10;;;;;;10443044;28;20078;-56
2023/03/18 22:23:59;;;;;;;3.30;1.60;;;16.30;70.10;;;;;;10450290;28;20544;-56
2023/03/18 22:28:59;;;;;;;2.95;1.60;;;16.30;70.10;;;;;;10449984;28;20021;-56
2023/03/18 22:34:00;;;;;;;3.30;1.67;;;16.30;70.10;;;;;;10450078;28;20027;-56
2023/03/18 22:39:01;;;;;;;2.28;1.27;;;16.20;70.00;;;;;;10448673;28;20025;-56
2023/03/18 22:44:02;;;;;;;2.55;1.20;;;16.20;70.00;;;;;;10436372;28;20058;-56
2023/03/18 22:49:06;;;;;;;3.70;1.33;;;16.20;70.00;;;;;;10448286;28;20025;-57
2023/03/18 22:54:16;;;;;;;2.13;1.15;;;16.20;70.00;;;;;;10447687;28;20369;-55
2023/03/18 22:59:17;;;;;;;;;;;16.20;69.90;;;;;;10448228;28;20079;-57
2023/03/18 23:04:17;;;;;;;2.20;1.25;;;16.20;69.90;;;;;;10448625;28;19967;-56
2023/03/18 23:09:18;;;;;;;1.95;0.98;;;16.20;69.90;;;;;;10447361;28;20073;-56
2023/03/18 23:14:19;;;;;;;3.08;1.25;;;16.20;69.80;;;;;;10430194;28;20104;-56
2023/03/18 23:19:19;;;;;;;4.45;1.50;;;16.20;69.80;;;;;;10448047;28;20025;-56
2023/03/18 23:24:20;;;;;;;2.35;1.25;;;16.20;69.80;;;;;;10447855;28;20119;-55
2023/03/18 23:29:20;;;;;;;3.42;1.27;;;16.20;69.80;;;;;;10446409;28;20104;-56
2023/03/18 23:34:21;;;;;;;1.92;1.30;;;16.20;69.70;;;;;;10448133;28;20096;-54
2023/03/18 23:39:22;;;;;;;1.85;1.48;;;16.20;69.70;;;;;;10446029;28;20346;-55
2023/03/18 23:44:24;;;;;;;1.95;1.30;;;16.20;69.70;;;;;;10433392;28;20485;-56
2023/03/18 23:49:28;;;;;;;3.35;1.50;;;16.20;69.70;;;;;;10447306;28;20377;-56
2023/03/18 23:54:29;;;;;;;1.83;0.90;;;16.20;69.70;;;;;;10447389;28;20342;-54
2023/03/18 23:59:30;;;;;;;1.75;1.20;;;16.10;69.60;;;;;;10445359;28;20032;-56
